createdAt,value
2023-03-01T00:01:11.925Z,9.75
2023-03-01T00:03:42.273Z,9.63
2023-03-01T00:06:09.837Z,11.30
2023-03-01T00:08:37.092Z,11.48
2023-03-01T00:11:08.823Z,9.32
2023-03-01T00:13:36.547Z,11.27
2023-03-01T00:16:09.280Z,8.85
2023-03-01T00:18:36.331Z,6.70
2023-03-01T00:21:03.180Z,9.68
2023-03-01T00:23:30.383Z,8.05
2023-03-01T00:25:57.112Z,9.23
2023-03-01T00:28:24.402Z,9.13
2023-03-01T00:30:51.149Z,8.45
2023-03-01T00:33:18.594Z,11.32
2023-03-01T00:35:45.816Z,9.32
2023-03-01T00:38:12.692Z,8.15
2023-03-01T00:40:39.371Z,9.57
2023-03-01T00:43:06.944Z,10.57
2023-03-01T00:45:34.188Z,10.38
2023-03-01T00:48:01.148Z,8.40
2023-03-01T00:50:28.773Z,10.27
2023-03-01T00:52:56.605Z,8.45
2023-03-01T00:55:24.581Z,7.93
2023-03-01T00:57:52.080Z,9.35
2023-03-01T01:00:20.442Z,7.63
2023-03-01T01:02:48.442Z,9.60
2023-03-01T01:05:15.670Z,10.40
2023-03-01T01:07:42.424Z,8.75
2023-03-01T01:10:13.912Z,10.40
2023-03-01T01:12:40.833Z,8.00
2023-03-01T01:15:08.112Z,10.20
2023-03-01T01:17:36.172Z,8.15
2023-03-01T01:20:03.295Z,8.20
2023-03-01T01:22:30.206Z,8.50
2023-03-01T01:24:56.933Z,10.48
2023-03-01T01:27:23.953Z,6.50
2023-03-01T01:29:50.685Z,6.72
2023-03-01T01:32:17.575Z,8.05
2023-03-01T01:34:44.630Z,8.00
2023-03-01T01:37:11.848Z,10.80
2023-03-01T01:39:38.773Z,8.20
2023-03-01T01:42:05.644Z,11.40
2023-03-01T01:44:35.279Z,8.20
2023-03-01T01:47:08.608Z,10.38
2023-03-01T01:49:57.236Z,14.13
2023-03-01T01:52:35.775Z,17.92
2023-03-01T01:55:09.826Z,15.70
2023-03-01T01:58:10.785Z,11.43
2023-03-01T02:00:39.866Z,11.82
2023-03-01T02:03:13.727Z,8.00
2023-03-01T02:05:55.519Z,9.50
2023-03-01T02:08:26.026Z,9.48
2023-03-01T02:10:53.988Z,9.65
2023-03-01T02:13:20.937Z,6.90
2023-03-01T02:15:48.196Z,6.47
2023-03-01T02:18:21.222Z,5.32
2023-03-01T02:20:51.029Z,7.15
2023-03-01T02:23:19.133Z,5.60
2023-03-01T02:25:50.332Z,6.07
2023-03-01T02:28:17.062Z,5.20
2023-03-01T02:31:04.539Z,5.05
2023-03-01T02:33:33.857Z,6.63
2023-03-01T02:36:04.625Z,6.50
2023-03-01T02:38:32.830Z,5.45
2023-03-01T02:41:00.724Z,6.35
2023-03-01T02:43:32.758Z,6.35
2023-03-01T02:46:13.970Z,7.53
2023-03-01T02:48:49.991Z,5.38
2023-03-01T02:51:47.700Z,5.50
2023-03-01T02:54:14.534Z,5.82
2023-03-01T02:56:42.444Z,6.97
2023-03-01T02:59:10.627Z,6.97
2023-03-01T03:01:37.901Z,8.18
2023-03-01T03:04:08.123Z,5.80
2023-03-01T03:06:35.060Z,7.22
2023-03-01T03:09:02.000Z,8.05
2023-03-01T03:11:28.878Z,6.45
2023-03-01T03:13:56.158Z,8.73
2023-03-01T03:16:23.842Z,7.43
2023-03-01T03:18:50.625Z,9.15
2023-03-01T03:21:17.558Z,6.60
2023-03-01T03:23:44.884Z,8.52
2023-03-01T03:26:14.396Z,8.75
2023-03-01T03:28:41.319Z,7.22
2023-03-01T03:31:08.987Z,7.68
2023-03-01T03:33:35.984Z,7.82
2023-03-01T03:36:02.772Z,10.27
2023-03-01T03:38:29.656Z,8.95
2023-03-01T03:41:08.396Z,7.53
2023-03-01T03:43:37.972Z,8.07
2023-03-01T03:46:06.881Z,10.60
2023-03-01T03:48:39.286Z,7.53
2023-03-01T03:51:06.814Z,7.40
2023-03-01T03:53:33.941Z,12.35
2023-03-01T03:56:00.848Z,10.35
2023-03-01T03:58:27.632Z,14.85
2023-03-01T04:00:57.388Z,13.48
2023-03-01T04:03:26.348Z,13.85
2023-03-01T04:05:53.872Z,10.13
2023-03-01T04:08:22.753Z,10.98
2023-03-01T04:10:53.793Z,11.60
2023-03-01T04:13:23.624Z,12.50
2023-03-01T04:15:51.945Z,9.18
2023-03-01T04:18:20.717Z,10.10
2023-03-01T04:20:48.347Z,8.77
2023-03-01T04:23:21.026Z,10.38
2023-03-01T04:25:59.294Z,9.63
2023-03-01T04:28:37.661Z,9.60
2023-03-01T04:31:18.389Z,13.13
2023-03-01T04:33:47.015Z,10.57
2023-03-01T04:36:15.722Z,9.93
2023-03-01T04:38:43.000Z,11.02
2023-03-01T04:41:12.213Z,12.77
2023-03-01T04:43:39.272Z,9.35
2023-03-01T04:46:13.921Z,10.20
2023-03-01T04:48:44.265Z,8.82
2023-03-01T04:51:14.561Z,7.53
2023-03-01T04:53:43.016Z,8.13
2023-03-01T04:56:10.711Z,8.35
2023-03-01T04:58:37.855Z,9.68
2023-03-01T05:01:16.171Z,7.28
2023-03-01T05:03:48.254Z,9.05
2023-03-01T05:06:16.048Z,8.50
2023-03-01T05:08:43.761Z,6.10
2023-03-01T05:11:11.601Z,6.82
2023-03-01T05:13:39.917Z,6.20
2023-03-01T05:16:12.554Z,6.72
2023-03-01T05:18:41.099Z,5.75
2023-03-01T05:21:13.687Z,4.95
2023-03-01T05:23:40.868Z,5.53
2023-03-01T05:26:16.103Z,5.53
2023-03-01T05:28:49.308Z,7.25
2023-03-01T05:31:16.861Z,7.07
2023-03-01T05:33:44.492Z,5.93
2023-03-01T05:36:11.452Z,7.05
2023-03-01T05:38:38.238Z,5.65
2023-03-01T05:41:05.197Z,4.75
2023-03-01T05:43:36.120Z,5.78
2023-03-01T05:46:02.990Z,7.22
2023-03-01T05:48:29.843Z,5.53
2023-03-01T05:51:01.729Z,5.00
2023-03-01T05:53:28.576Z,5.05
2023-03-01T05:55:55.289Z,7.13
2023-03-01T05:58:22.762Z,5.80
2023-03-01T06:00:50.381Z,5.05
2023-03-01T06:03:18.326Z,5.55
2023-03-01T06:05:45.554Z,5.03
2023-03-01T06:08:13.686Z,4.57
2023-03-01T06:10:40.620Z,5.40
2023-03-01T06:13:07.421Z,5.05
2023-03-01T06:15:34.171Z,6.10
2023-03-01T06:18:00.918Z,4.60
2023-03-01T06:20:29.609Z,5.30
2023-03-01T06:22:56.604Z,4.93
2023-03-01T06:25:25.950Z,4.40
2023-03-01T06:27:55.752Z,4.60
2023-03-01T06:30:24.758Z,6.63
2023-03-01T06:32:52.125Z,8.00
2023-03-01T06:35:19.903Z,10.07
2023-03-01T06:37:47.800Z,9.10
2023-03-01T06:40:16.275Z,6.90
2023-03-01T06:42:48.560Z,6.68
2023-03-01T06:45:15.637Z,3.92
2023-03-01T06:47:42.557Z,4.03
2023-03-01T06:50:10.186Z,6.05
2023-03-01T06:52:37.295Z,5.10
2023-03-01T06:55:05.228Z,4.47
2023-03-01T06:57:32.194Z,4.63
2023-03-01T06:59:59.100Z,4.47
2023-03-01T07:02:25.959Z,4.22
2023-03-01T07:04:53.645Z,4.43
2023-03-01T07:07:21.008Z,6.43
2023-03-01T07:09:49.304Z,5.20
2023-03-01T07:12:16.131Z,5.25
2023-03-01T07:14:44.945Z,5.15
2023-03-01T07:17:11.657Z,5.93
2023-03-01T07:19:38.417Z,5.47
2023-03-01T07:22:05.695Z,7.68
2023-03-01T07:24:32.423Z,5.07
2023-03-01T07:26:59.305Z,6.78
2023-03-01T07:29:26.073Z,3.38
2023-03-01T07:31:53.207Z,3.72
2023-03-01T07:34:19.959Z,5.20
2023-03-01T07:36:46.690Z,3.95
2023-03-01T07:39:13.457Z,3.63
2023-03-01T07:41:40.338Z,4.85
2023-03-01T07:44:07.352Z,5.82
2023-03-01T07:46:34.253Z,6.95
2023-03-01T07:49:01.051Z,6.53
2023-03-01T07:51:27.856Z,4.47
2023-03-01T07:53:54.561Z,6.00
2023-03-01T07:56:23.024Z,5.30
2023-03-01T07:58:50.981Z,4.72
2023-03-01T08:01:20.512Z,4.15
2023-03-01T08:03:47.696Z,4.00
2023-03-01T08:06:17.271Z,5.15
2023-03-01T08:08:44.449Z,3.80
2023-03-01T08:11:16.008Z,4.13
2023-03-01T08:13:44.353Z,5.03
2023-03-01T08:16:13.614Z,8.48
2023-03-01T08:18:40.450Z,7.93
2023-03-01T08:21:14.854Z,5.78
2023-03-01T08:23:42.445Z,5.38
2023-03-01T08:26:18.263Z,5.30
2023-03-01T08:28:45.567Z,4.80
2023-03-01T08:31:19.398Z,4.53
2023-03-01T08:33:51.698Z,4.63
2023-03-01T08:36:19.381Z,3.90
2023-03-01T08:38:46.863Z,4.55
2023-03-01T08:41:14.101Z,7.47
2023-03-01T08:43:41.081Z,5.75
2023-03-01T08:46:08.049Z,6.32
2023-03-01T08:48:34.816Z,6.07
2023-03-01T08:51:12.683Z,9.43
2023-03-01T08:53:40.277Z,6.28
2023-03-01T08:56:07.765Z,8.52
2023-03-01T08:58:34.557Z,7.60
2023-03-01T09:01:01.596Z,6.45
2023-03-01T09:03:28.525Z,10.27
2023-03-01T09:06:01.654Z,7.22
2023-03-01T09:08:29.044Z,6.82
2023-03-01T09:10:56.099Z,5.30
2023-03-01T09:13:25.848Z,8.52
2023-03-01T09:15:52.889Z,4.75
2023-03-01T09:18:19.660Z,6.72
2023-03-01T09:20:46.572Z,7.80
2023-03-01T09:23:13.310Z,6.95
2023-03-01T09:25:40.060Z,6.10
2023-03-01T09:28:06.807Z,7.07
2023-03-01T09:30:34.055Z,6.45
2023-03-01T09:33:01.029Z,6.63
2023-03-01T09:35:27.953Z,5.97
2023-03-01T09:37:54.704Z,5.18
2023-03-01T09:40:25.287Z,9.43
2023-03-01T09:43:15.277Z,9.23
2023-03-01T09:45:46.719Z,8.07
2023-03-01T09:48:19.990Z,8.63
2023-03-01T09:50:47.882Z,7.32
2023-03-01T09:53:21.234Z,7.85
2023-03-01T09:56:19.930Z,8.20
2023-03-01T09:58:55.687Z,8.38
2023-03-01T10:01:22.401Z,7.60
2023-03-01T10:04:20.260Z,8.45
2023-03-01T10:07:02.093Z,7.95
2023-03-01T10:09:34.717Z,9.30
2023-03-01T10:12:03.452Z,9.30
2023-03-01T10:14:43.160Z,8.38
2023-03-01T10:17:57.553Z,8.98
2023-03-01T10:20:27.149Z,8.35
2023-03-01T10:22:56.219Z,9.00
2023-03-01T10:25:42.483Z,6.93
2023-03-01T10:28:24.319Z,8.45
2023-03-01T10:30:52.483Z,7.28
2023-03-01T10:33:40.712Z,7.72
2023-03-01T10:36:08.394Z,8.43
2023-03-01T10:38:54.892Z,7.53
2023-03-01T10:41:24.446Z,9.00
2023-03-01T10:43:55.701Z,10.30
2023-03-01T10:46:34.036Z,10.90
2023-03-01T10:49:17.656Z,8.70
2023-03-01T10:51:48.073Z,10.60
2023-03-01T10:54:23.357Z,10.88
2023-03-01T10:56:56.652Z,13.98
2023-03-01T10:59:29.340Z,10.13
2023-03-01T11:02:24.123Z,20.13
2023-03-01T11:04:58.209Z,15.60
2023-03-01T11:07:25.501Z,13.25
2023-03-01T11:09:52.223Z,15.52
2023-03-01T11:12:19.434Z,13.30
2023-03-01T11:14:51.782Z,11.23
2023-03-01T11:17:53.642Z,8.65
2023-03-01T11:20:38.986Z,10.27
2023-03-01T11:23:12.093Z,10.40
2023-03-01T11:25:43.104Z,9.75
2023-03-01T11:28:16.239Z,11.88
2023-03-01T11:31:07.845Z,9.32
2023-03-01T11:33:43.593Z,11.32
2023-03-01T11:36:34.243Z,13.45
2023-03-01T11:39:20.476Z,73.57
2023-03-01T11:41:53.262Z,57.97
2023-03-01T11:44:26.491Z,17.98
2023-03-01T11:47:18.044Z,17.27
2023-03-01T11:49:56.553Z,21.08
2023-03-01T11:52:41.634Z,18.13
2023-03-01T11:55:44.030Z,21.45
2023-03-01T12:01:44.891Z,20.38
2023-03-01T12:04:30.266Z,18.40
2023-03-01T12:07:00.988Z,18.33
2023-03-01T12:09:51.356Z,20.23
2023-03-01T12:12:30.145Z,20.92
2023-03-01T12:15:19.223Z,18.02
2023-03-01T12:17:56.616Z,15.95
2023-03-01T12:23:21.307Z,13.85
2023-03-01T12:26:15.769Z,13.35
2023-03-01T12:29:01.872Z,13.48
2023-03-01T12:31:41.025Z,13.75
2023-03-01T12:34:14.106Z,7.93
2023-03-01T12:36:59.204Z,9.00
2023-03-01T12:39:59.048Z,7.78
2023-03-01T12:42:34.834Z,10.40
2023-03-01T12:45:13.598Z,11.80
2023-03-01T12:48:12.825Z,10.73
2023-03-01T12:50:45.142Z,10.63
2023-03-01T12:53:24.924Z,9.18
2023-03-01T12:55:55.236Z,8.85
2023-03-01T12:58:36.991Z,9.27
2023-03-01T13:01:27.812Z,9.70
2023-03-01T13:04:09.229Z,8.13
2023-03-01T13:06:56.196Z,8.50
2023-03-01T13:09:25.960Z,8.88
2023-03-01T13:11:53.130Z,9.05
2023-03-01T13:14:23.953Z,20.90
2023-03-01T13:16:54.587Z,17.50
2023-03-01T13:19:26.372Z,29.20
2023-03-01T13:21:55.830Z,35.15
2023-03-01T13:24:38.859Z,18.60
2023-03-01T13:27:09.381Z,18.42
2023-03-01T13:30:35.025Z,14.80
2023-03-01T13:33:35.294Z,15.07
2023-03-01T13:36:02.839Z,15.13
2023-03-01T13:38:58.541Z,10.80
2023-03-01T13:41:43.762Z,14.85
2023-03-01T13:44:30.000Z,11.52
2023-03-01T13:47:13.670Z,20.25
2023-03-01T13:52:43.409Z,31.85
2023-03-01T13:55:17.776Z,15.32
2023-03-01T13:57:49.006Z,19.25
2023-03-01T14:00:30.924Z,22.50
2023-03-01T14:03:06.109Z,14.77
2023-03-01T14:05:34.959Z,15.48
2023-03-01T14:08:01.914Z,22.30
2023-03-01T14:10:44.520Z,22.88
2023-03-01T14:13:30.239Z,15.85
2023-03-01T14:16:25.918Z,13.48
2023-03-01T14:19:32.582Z,13.65
2023-03-01T14:22:22.162Z,11.65
2023-03-01T14:25:04.300Z,10.13
2023-03-01T14:27:40.592Z,10.48
2023-03-01T14:30:15.706Z,12.60
2023-03-01T14:32:42.755Z,10.63
2023-03-01T14:35:25.103Z,11.27
2023-03-01T14:37:52.104Z,11.75
2023-03-01T14:40:25.629Z,11.95
2023-03-01T14:42:53.491Z,10.07
2023-03-01T14:45:21.337Z,9.70
2023-03-01T14:47:49.644Z,10.27
2023-03-01T14:50:23.398Z,14.27
2023-03-01T14:52:53.304Z,12.93
2023-03-01T14:55:30.575Z,11.30
2023-03-01T14:57:58.361Z,9.65
2023-03-01T15:00:31.114Z,10.20
2023-03-01T15:03:04.246Z,8.63
2023-03-01T15:05:33.226Z,8.38
2023-03-01T15:08:02.602Z,9.10
2023-03-01T15:10:35.951Z,11.93
2023-03-01T15:13:22.723Z,6.07
2023-03-01T15:15:54.851Z,5.93
2023-03-01T15:18:27.019Z,9.02
2023-03-01T15:20:54.674Z,10.23
2023-03-01T15:23:28.396Z,9.45
2023-03-01T15:25:59.288Z,8.65
2023-03-01T15:28:29.399Z,7.60
2023-03-01T15:31:16.505Z,7.68
2023-03-01T15:33:48.182Z,7.85
2023-03-01T15:36:34.088Z,8.60
2023-03-01T15:39:02.124Z,8.75
2023-03-01T15:41:32.151Z,11.93
2023-03-01T15:44:00.675Z,9.88
2023-03-01T15:46:38.689Z,9.00
2023-03-01T15:49:26.259Z,18.23
2023-03-01T15:51:56.073Z,7.72
2023-03-01T15:54:26.170Z,8.07
2023-03-01T15:56:53.325Z,8.27
2023-03-01T15:59:20.126Z,10.20
2023-03-01T16:01:49.840Z,8.18
2023-03-01T16:04:23.850Z,8.98
2023-03-01T16:06:55.234Z,7.88
2023-03-01T16:09:26.268Z,8.52
2023-03-01T16:11:54.500Z,9.70
2023-03-01T16:14:22.057Z,10.68
2023-03-01T16:16:49.814Z,8.55
2023-03-01T16:19:17.095Z,9.77
2023-03-01T16:21:44.841Z,8.38
2023-03-01T16:24:11.675Z,9.57
2023-03-01T16:26:38.823Z,7.25
2023-03-01T16:29:06.066Z,8.98
2023-03-01T16:31:33.797Z,12.45
2023-03-01T16:34:01.287Z,11.77
2023-03-01T16:36:31.626Z,10.18
2023-03-01T16:39:01.510Z,11.27
2023-03-01T16:41:28.842Z,10.00
2023-03-01T16:43:55.716Z,12.25
2023-03-01T16:46:25.391Z,11.48
2023-03-01T16:48:53.304Z,14.95
2023-03-01T16:51:20.975Z,18.15
2023-03-01T16:53:47.961Z,18.05
2023-03-01T16:56:15.544Z,16.50
2023-03-01T16:58:42.527Z,17.92
2023-03-01T17:01:20.873Z,20.00
2023-03-01T17:03:49.771Z,12.35
2023-03-01T17:06:21.385Z,13.60
2023-03-01T17:08:48.261Z,17.13
2023-03-01T17:11:18.656Z,17.48
2023-03-01T17:13:45.472Z,20.85
2023-03-01T17:16:15.427Z,20.50
2023-03-01T17:18:43.036Z,19.35
2023-03-01T17:21:10.312Z,29.38
2023-03-01T17:23:39.738Z,27.85
2023-03-01T17:26:07.626Z,27.13
2023-03-01T17:28:36.392Z,28.15
2023-03-01T17:31:05.520Z,28.60
2023-03-01T17:33:33.077Z,29.70
2023-03-01T17:36:00.792Z,27.67
2023-03-01T17:38:28.107Z,25.90
2023-03-01T17:40:55.056Z,31.80
2023-03-01T17:43:22.500Z,23.30
2023-03-01T17:45:51.594Z,23.30
2023-03-01T17:48:19.018Z,26.63
2023-03-01T17:50:46.086Z,22.23
2023-03-01T17:53:13.776Z,29.13
2023-03-01T17:55:42.541Z,30.95
2023-03-01T17:58:12.506Z,37.28
2023-03-01T18:00:40.077Z,38.67
2023-03-01T18:03:07.325Z,67.82
2023-03-01T18:05:36.031Z,53.50
2023-03-01T18:08:03.058Z,58.78
2023-03-01T18:10:31.249Z,51.42
2023-03-01T18:12:58.067Z,52.28
2023-03-01T18:15:24.977Z,49.65
2023-03-01T18:17:51.753Z,38.72
2023-03-01T18:20:19.451Z,36.17
2023-03-01T18:22:46.547Z,36.83
2023-03-01T18:25:13.817Z,40.40
2023-03-01T18:27:40.692Z,30.23
2023-03-01T18:30:09.156Z,23.95
2023-03-01T18:32:36.110Z,35.63
2023-03-01T18:35:03.600Z,42.92
2023-03-01T18:37:30.619Z,42.97
2023-03-01T18:39:57.493Z,33.85
2023-03-01T18:42:24.509Z,34.25
2023-03-01T18:44:51.584Z,26.88
2023-03-01T18:47:18.359Z,19.60
2023-03-01T18:49:45.290Z,23.50
2023-03-01T18:52:12.236Z,23.63
2023-03-01T18:54:39.150Z,22.98
2023-03-01T18:57:05.898Z,20.48
2023-03-01T18:59:33.443Z,15.98
2023-03-01T19:02:00.422Z,22.60
2023-03-01T19:04:27.625Z,33.08
2023-03-01T19:06:54.498Z,25.52
2023-03-01T19:09:21.316Z,30.85
2023-03-01T19:11:48.068Z,29.15
2023-03-01T19:14:14.951Z,30.63
2023-03-01T19:16:41.756Z,22.98
2023-03-01T19:19:10.124Z,30.45
2023-03-01T19:21:37.315Z,23.00
2023-03-01T19:24:04.692Z,25.48
2023-03-01T19:26:32.879Z,27.52
2023-03-01T19:29:00.734Z,23.63
2023-03-01T19:31:30.169Z,21.80
2023-03-01T19:34:16.035Z,20.80
2023-03-01T19:36:45.020Z,26.38
2023-03-01T19:39:14.405Z,36.17
2023-03-01T19:41:42.903Z,28.48
2023-03-01T19:44:10.825Z,33.88
2023-03-01T19:46:41.098Z,27.10
2023-03-01T19:49:08.838Z,23.23
2023-03-01T19:51:39.191Z,23.90
2023-03-01T19:54:06.702Z,26.50
2023-03-01T19:56:34.865Z,20.00
2023-03-01T19:59:04.712Z,21.33
2023-03-01T20:01:34.711Z,48.53
2023-03-01T20:04:02.791Z,69.28
2023-03-01T20:06:30.484Z,31.02
2023-03-01T20:08:57.955Z,17.50
2023-03-01T20:11:25.572Z,20.45
2023-03-01T20:13:52.504Z,23.85
2023-03-01T20:16:20.360Z,24.60
2023-03-01T20:18:47.209Z,22.27
2023-03-01T20:21:24.120Z,29.08
2023-03-01T20:23:52.931Z,25.13
2023-03-01T20:26:21.989Z,16.75
2023-03-01T20:28:52.832Z,17.17
2023-03-01T20:31:22.184Z,19.38
2023-03-01T20:33:49.735Z,21.08
2023-03-01T20:36:17.424Z,18.67
2023-03-01T20:38:45.539Z,22.48
2023-03-01T20:41:14.440Z,17.65
2023-03-01T20:43:44.976Z,20.40
2023-03-01T20:46:15.210Z,15.20
2023-03-01T20:48:43.313Z,16.63
2023-03-01T20:51:12.480Z,20.65
2023-03-01T20:53:40.536Z,16.55
2023-03-01T20:56:14.206Z,17.75
2023-03-01T20:58:46.166Z,16.70
2023-03-01T21:01:56.549Z,17.08
2023-03-01T21:04:23.708Z,13.02
2023-03-01T21:06:50.719Z,11.85
2023-03-01T21:09:17.895Z,12.40
2023-03-01T21:11:45.928Z,13.48
2023-03-01T21:14:12.960Z,15.63
2023-03-01T21:16:40.020Z,19.13
2023-03-01T21:19:07.559Z,15.93
2023-03-01T21:21:34.598Z,14.70
2023-03-01T21:24:01.815Z,16.35
2023-03-01T21:26:30.484Z,20.58
2023-03-01T21:29:03.122Z,23.35
2023-03-01T21:31:35.328Z,19.90
2023-03-01T21:34:06.032Z,18.55
2023-03-01T21:36:35.952Z,17.05
2023-03-01T21:39:07.016Z,18.55
2023-03-01T21:41:41.117Z,17.35
2023-03-01T21:44:13.900Z,18.08
2023-03-01T21:46:42.977Z,18.05
2023-03-01T21:49:11.300Z,23.60
2023-03-01T21:51:39.639Z,20.52
2023-03-01T21:54:09.528Z,20.15
2023-03-01T21:56:39.808Z,18.55
2023-03-01T21:59:15.362Z,20.13
2023-03-01T22:01:43.109Z,21.23
2023-03-01T22:04:10.925Z,17.13
2023-03-01T22:06:41.346Z,24.08
2023-03-01T22:09:16.827Z,14.88
2023-03-01T22:11:47.226Z,17.20
2023-03-01T22:14:14.846Z,14.70
2023-03-01T22:16:46.211Z,13.68
2023-03-01T22:19:16.236Z,15.45
2023-03-01T22:21:45.454Z,15.23
2023-03-01T22:24:13.744Z,12.02
2023-03-01T22:26:43.616Z,13.05
2023-03-01T22:29:15.111Z,15.70
2023-03-01T22:31:42.679Z,13.27
2023-03-01T22:34:10.327Z,11.52
2023-03-01T22:36:39.461Z,12.02
2023-03-01T22:39:06.720Z,8.35
2023-03-01T22:41:37.610Z,10.35
2023-03-01T22:44:04.843Z,8.70
2023-03-01T22:46:32.311Z,9.05
2023-03-01T22:48:59.592Z,14.88
2023-03-01T22:51:32.485Z,12.20
2023-03-01T22:53:59.880Z,13.15
2023-03-01T22:56:30.615Z,16.25
2023-03-01T22:59:03.160Z,11.38
2023-03-01T23:01:31.164Z,14.13
2023-03-01T23:03:58.395Z,13.00
2023-03-01T23:06:25.515Z,11.85
2023-03-01T23:08:54.548Z,9.80
2023-03-01T23:11:22.590Z,10.68
2023-03-01T23:13:50.155Z,10.48
2023-03-01T23:16:18.334Z,9.52
2023-03-01T23:18:45.518Z,11.90
2023-03-01T23:21:18.347Z,10.95
2023-03-01T23:23:47.274Z,11.93
2023-03-01T23:26:15.259Z,8.85
2023-03-01T23:28:42.976Z,7.75
2023-03-01T23:31:13.913Z,8.98
2023-03-01T23:33:43.325Z,10.13
2023-03-01T23:36:15.955Z,7.40
2023-03-01T23:38:42.809Z,9.35
2023-03-01T23:41:16.071Z,11.15
2023-03-01T23:43:47.605Z,9.93
2023-03-01T23:46:16.040Z,12.50
2023-03-01T23:48:43.776Z,10.45
2023-03-01T23:51:11.786Z,13.45
2023-03-01T23:53:44.964Z,16.67
2023-03-01T23:56:13.684Z,13.13
2023-03-01T23:58:43.412Z,11.68
